FDX1992 TNCA-TNCC
Flight info
| Callsign | FDX1992 |
|---|---|
| Flight time | 0h 20m |
| Altitude | 11000 |
| Route | ADRIV1F ADRIV ARUB1B |
| Aircraft | B752/M-SDE2E3FGHIJ3J4J7RWXY/LB1 |
Departure
| Time | 2026-05-08 00:03 |
|---|---|
| Airport | Queen Beatrix International Airport (TNCA) |
Arrival
| Time | 2026-05-08 00:23 |
|---|---|
| Airport | Hato International Airport (TNCC) |
| Time | Latitude | Longitude | Altitude | Speed | Heading |
|---|---|---|---|---|---|
| 2026-05-07 23:45 | 12.50388 | -70.01219 | 68 ft | 0 kts | 13° |
| 2026-05-07 23:57 | 12.50386 | -70.01219 | 67 ft | 1 kts | 13° |
| 2026-05-07 23:57 | 12.50376 | -70.01222 | 67 ft | 2 kts | 11° |
| 2026-05-07 23:57 | 12.50361 | -70.01222 | 67 ft | 2 kts | 346° |
| 2026-05-07 23:58 | 12.50347 | -70.01216 | 66 ft | 2 kts | 326° |
| 2026-05-07 23:58 | 12.50336 | -70.01206 | 67 ft | 2 kts | 306° |
| 2026-05-07 23:58 | 12.50329 | -70.01194 | 67 ft | 0 kts | 287° |
| 2026-05-07 23:58 | 12.50328 | -70.01188 | 67 ft | 1 kts | 284° |
| 2026-05-07 23:59 | 12.50327 | -70.01187 | 67 ft | 0 kts | 285° |
| 2026-05-08 00:00 | 12.50331 | -70.01200 | 67 ft | 11 kts | 285° |
| 2026-05-08 00:00 | 12.50352 | -70.01317 | 61 ft | 19 kts | 264° |
| 2026-05-08 00:00 | 12.50314 | -70.01463 | 54 ft | 24 kts | 258° |
| 2026-05-08 00:01 | 12.50347 | -70.01648 | 45 ft | 28 kts | 282° |
| 2026-05-08 00:01 | 12.50403 | -70.01859 | 38 ft | 34 kts | 285° |
| 2026-05-08 00:01 | 12.50463 | -70.02110 | 33 ft | 37 kts | 284° |
| 2026-05-08 00:01 | 12.50518 | -70.02375 | 28 ft | 35 kts | 284° |
| 2026-05-08 00:02 | 12.50574 | -70.02592 | 27 ft | 28 kts | 283° |
| 2026-05-08 00:02 | 12.50527 | -70.02742 | 24 ft | 22 kts | 243° |
| 2026-05-08 00:02 | 12.50449 | -70.02805 | 23 ft | 9 kts | 144° |
| 2026-05-08 00:02 | 12.50430 | -70.02745 | 24 ft | 10 kts | 103° |
| 2026-05-08 00:03 | 12.50347 | -70.02395 | 26 ft | 100 kts | 102° |
| 2026-05-08 00:03 | 12.50122 | -70.01423 | 183 ft | 173 kts | 101° |
| 2026-05-08 00:03 | 12.49825 | -70.00098 | 1061 ft | 208 kts | 99° |
| 2026-05-08 00:03 | 12.49602 | -69.98777 | 2716 ft | 180 kts | 97° |
| 2026-05-08 00:04 | 12.49396 | -69.97513 | 3208 ft | 194 kts | 99° |
| 2026-05-08 00:04 | 12.49124 | -69.96119 | 3780 ft | 203 kts | 101° |
| 2026-05-08 00:04 | 12.48819 | -69.94701 | 4391 ft | 212 kts | 102° |
| 2026-05-08 00:04 | 12.48467 | -69.93138 | 4751 ft | 236 kts | 102° |
| 2026-05-08 00:05 | 12.48074 | -69.91440 | 5221 ft | 255 kts | 103° |
| 2026-05-08 00:05 | 12.47658 | -69.89667 | 5914 ft | 264 kts | 103° |
| 2026-05-08 00:05 | 12.47217 | -69.87807 | 6632 ft | 271 kts | 104° |
| 2026-05-08 00:05 | 12.46779 | -69.85967 | 7507 ft | 271 kts | 104° |
| 2026-05-08 00:06 | 12.46328 | -69.84077 | 8258 ft | 276 kts | 103° |
| 2026-05-08 00:06 | 12.45860 | -69.82188 | 9003 ft | 279 kts | 105° |
| 2026-05-08 00:06 | 12.45283 | -69.80283 | 9783 ft | 282 kts | 109° |
| 2026-05-08 00:06 | 12.44641 | -69.78361 | 10379 ft | 292 kts | 107° |
| 2026-05-08 00:07 | 12.44028 | -69.76329 | 10646 ft | 313 kts | 106° |
| 2026-05-08 00:07 | 12.43394 | -69.74140 | 10905 ft | 327 kts | 105° |
| 2026-05-08 00:07 | 12.42767 | -69.71935 | 10907 ft | 315 kts | 105° |
| 2026-05-08 00:07 | 12.42178 | -69.69836 | 10889 ft | 299 kts | 104° |
| 2026-05-08 00:08 | 12.41622 | -69.67842 | 10870 ft | 283 kts | 104° |
| 2026-05-08 00:08 | 12.41088 | -69.65916 | 10451 ft | 285 kts | 105° |
| 2026-05-08 00:08 | 12.40551 | -69.63973 | 10121 ft | 281 kts | 105° |
| 2026-05-08 00:08 | 12.40020 | -69.62054 | 9730 ft | 281 kts | 105° |
| 2026-05-08 00:09 | 12.39467 | -69.60146 | 9370 ft | 279 kts | 109° |
| 2026-05-08 00:09 | 12.38791 | -69.58294 | 9037 ft | 276 kts | 110° |
| 2026-05-08 00:09 | 12.38120 | -69.56464 | 8680 ft | 274 kts | 110° |
| 2026-05-08 00:09 | 12.37460 | -69.54658 | 8314 ft | 273 kts | 110° |
| 2026-05-08 00:10 | 12.36798 | -69.52849 | 7974 ft | 271 kts | 110° |
| 2026-05-08 00:10 | 12.36135 | -69.51035 | 7600 ft | 270 kts | 110° |
| 2026-05-08 00:10 | 12.35484 | -69.49254 | 7308 ft | 266 kts | 110° |
| 2026-05-08 00:10 | 12.34832 | -69.47472 | 6885 ft | 268 kts | 110° |
| 2026-05-08 00:11 | 12.34186 | -69.45706 | 6540 ft | 266 kts | 110° |
| 2026-05-08 00:11 | 12.33535 | -69.43926 | 6211 ft | 263 kts | 110° |
| 2026-05-08 00:11 | 12.32899 | -69.42192 | 5895 ft | 261 kts | 110° |
| 2026-05-08 00:11 | 12.32278 | -69.40497 | 5795 ft | 246 kts | 110° |
| 2026-05-08 00:12 | 12.31702 | -69.38924 | 5546 ft | 230 kts | 110° |
| 2026-05-08 00:12 | 12.31157 | -69.37437 | 5481 ft | 217 kts | 110° |
| 2026-05-08 00:12 | 12.30631 | -69.36000 | 5223 ft | 216 kts | 110° |
| 2026-05-08 00:12 | 12.30102 | -69.34558 | 4998 ft | 214 kts | 110° |
| 2026-05-08 00:13 | 12.29586 | -69.33151 | 4791 ft | 209 kts | 109° |
| 2026-05-08 00:13 | 12.29081 | -69.31773 | 4488 ft | 209 kts | 109° |
| 2026-05-08 00:13 | 12.28568 | -69.30376 | 4210 ft | 207 kts | 109° |
| 2026-05-08 00:13 | 12.28075 | -69.29030 | 4024 ft | 198 kts | 109° |
| 2026-05-08 00:14 | 12.27593 | -69.27719 | 3744 ft | 191 kts | 109° |
| 2026-05-08 00:14 | 12.27144 | -69.26498 | 3689 ft | 174 kts | 108° |
| 2026-05-08 00:14 | 12.26737 | -69.25390 | 3614 ft | 157 kts | 108° |
| 2026-05-08 00:14 | 12.26263 | -69.24417 | 3276 ft | 150 kts | 116° |
| 2026-05-08 00:15 | 12.25771 | -69.23499 | 2806 ft | 150 kts | 111° |
| 2026-05-08 00:15 | 12.25341 | -69.22559 | 2460 ft | 139 kts | 108° |
| 2026-05-08 00:15 | 12.24983 | -69.21686 | 2458 ft | 136 kts | 106° |
| 2026-05-08 00:15 | 12.24632 | -69.20720 | 2487 ft | 148 kts | 105° |
| 2026-05-08 00:16 | 12.24302 | -69.19736 | 2455 ft | 145 kts | 104° |
| 2026-05-08 00:16 | 12.23999 | -69.18748 | 2467 ft | 146 kts | 103° |
| 2026-05-08 00:16 | 12.23716 | -69.17757 | 2465 ft | 145 kts | 102° |
| 2026-05-08 00:16 | 12.23449 | -69.16761 | 2469 ft | 145 kts | 101° |
| 2026-05-08 00:17 | 12.23197 | -69.15767 | 2484 ft | 144 kts | 101° |
| 2026-05-08 00:17 | 12.22959 | -69.14795 | 2452 ft | 133 kts | 100° |
| 2026-05-08 00:17 | 12.22749 | -69.13902 | 2460 ft | 128 kts | 100° |
| 2026-05-08 00:17 | 12.22544 | -69.13002 | 2474 ft | 132 kts | 99° |
| 2026-05-08 00:18 | 12.22339 | -69.12090 | 2470 ft | 130 kts | 99° |
| 2026-05-08 00:18 | 12.22142 | -69.11198 | 2462 ft | 129 kts | 99° |
| 2026-05-08 00:18 | 12.21946 | -69.10299 | 2476 ft | 128 kts | 99° |
| 2026-05-08 00:18 | 12.21757 | -69.09425 | 2378 ft | 125 kts | 99° |
| 2026-05-08 00:19 | 12.21573 | -69.08571 | 2221 ft | 120 kts | 98° |
| 2026-05-08 00:19 | 12.21395 | -69.07744 | 2091 ft | 115 kts | 98° |
| 2026-05-08 00:19 | 12.21222 | -69.06926 | 1963 ft | 119 kts | 98° |
| 2026-05-08 00:19 | 12.21049 | -69.06113 | 1811 ft | 116 kts | 98° |
| 2026-05-08 00:20 | 12.20877 | -69.05312 | 1662 ft | 115 kts | 97° |
| 2026-05-08 00:20 | 12.20711 | -69.04517 | 1514 ft | 114 kts | 97° |
| 2026-05-08 00:20 | 12.20545 | -69.03745 | 1358 ft | 109 kts | 98° |
| 2026-05-08 00:20 | 12.20387 | -69.02993 | 1215 ft | 109 kts | 98° |
| 2026-05-08 00:21 | 12.20223 | -69.02217 | 1070 ft | 112 kts | 98° |
| 2026-05-08 00:21 | 12.20058 | -69.01440 | 932 ft | 113 kts | 98° |
| 2026-05-08 00:21 | 12.19889 | -69.00647 | 808 ft | 115 kts | 98° |
| 2026-05-08 00:21 | 12.19718 | -68.99841 | 652 ft | 115 kts | 98° |
| 2026-05-08 00:22 | 12.19549 | -68.99049 | 514 ft | 117 kts | 99° |
| 2026-05-08 00:22 | 12.19375 | -68.98227 | 357 ft | 118 kts | 99° |
| 2026-05-08 00:22 | 12.19199 | -68.97398 | 202 ft | 119 kts | 99° |
| 2026-05-08 00:22 | 12.19022 | -68.96564 | 58 ft | 121 kts | 100° |
| 2026-05-08 00:23 | 12.18851 | -68.95766 | 45 ft | 104 kts | 99° |
| 2026-05-08 00:23 | 12.18735 | -68.95172 | 44 ft | 78 kts | 103° |
| 2026-05-08 00:23 | 12.18637 | -68.94723 | 42 ft | 38 kts | 102° |
| 2026-05-08 00:23 | 12.18585 | -68.94504 | 46 ft | 24 kts | 118° |
| 2026-05-08 00:24 | 12.18458 | -68.94478 | 49 ft | 14 kts | 199° |
| 2026-05-08 00:24 | 12.18415 | -68.94555 | 49 ft | 14 kts | 280° |
| 2026-05-08 00:24 | 12.18430 | -68.94632 | 47 ft | 12 kts | 282° |
| 2026-05-08 00:24 | 12.18449 | -68.94722 | 46 ft | 13 kts | 282° |
| 2026-05-08 00:25 | 12.18470 | -68.94821 | 45 ft | 14 kts | 282° |
| 2026-05-08 00:25 | 12.18501 | -68.94957 | 45 ft | 25 kts | 282° |
| 2026-05-08 00:25 | 12.18540 | -68.95142 | 47 ft | 25 kts | 283° |
| 2026-05-08 00:25 | 12.18566 | -68.95264 | 47 ft | 17 kts | 280° |
| 2026-05-08 00:26 | 12.18589 | -68.95386 | 49 ft | 20 kts | 282° |
| 2026-05-08 00:26 | 12.18622 | -68.95540 | 50 ft | 23 kts | 281° |
| 2026-05-08 00:26 | 12.18658 | -68.95702 | 49 ft | 21 kts | 282° |
| 2026-05-08 00:26 | 12.18673 | -68.95774 | 50 ft | 9 kts | 282° |
| 2026-05-08 00:27 | 12.18689 | -68.95843 | 50 ft | 7 kts | 280° |
| 2026-05-08 00:27 | 12.18670 | -68.95866 | 52 ft | 4 kts | 198° |
| 2026-05-08 00:27 | 12.18643 | -68.95874 | 53 ft | 3 kts | 193° |
| 2026-05-08 00:27 | 12.18619 | -68.95879 | 55 ft | 3 kts | 186° |
| 2026-05-08 00:28 | 12.18592 | -68.95883 | 56 ft | 3 kts | 191° |
| 2026-05-08 00:28 | 12.18570 | -68.95888 | 58 ft | 0 kts | 191° |
| 2026-05-08 00:28 | 12.18569 | -68.95888 | 58 ft | 0 kts | 191° |